Home PIREPS Pireps

Flight BEL12255TR

  • Submitted By: AndrĂ© Vincent
  • Departure Airport: Glasgow (EGPF)
  • Arrival Airport: Sevilla / San Pablo (LEZL)
  • Aircraft: YOUR CHOICE (YC)
  • Flight Time: 02.50
  • Date Submitted: 28/11/2017
  • Status: Accepted
Flight Details
Gross Revenue:
(25 load / € 0.00 per unit
€ 0.00
Fuel Cost:
(15900 fuel used @ 5.1 / unit)
€ 81,090.00

Additional Log Information:

View Log

Aircraft Used in flight is Boeing 737-800 sabena paint
10:57 Brakes are On
10:58 Brakes are Released
11:03 You Took off @ 197 Knots and Flaps at Position 2
Departure Weather
EGPF 280950Z AUTO 21004KT 180V270 9999 NCD 04/00 Q1011rn
11:03 Landing Gear Up @ 206 Knots and 100 Feet
13:42 Landing Gear Down @ 141 Knots and 1980 Feet
13:45 You Landed @ 97 Knots and with -50 Vertical Speed
Arrival Weather
LEZL 281230Z 08002KT 9999 -RA FEW030 18/12 Q1017 NOSIGrn
13:48 Brakes are On
13:48 Brussels Bel-Track1.0.1.2

Route Map

Corporate About Us Our Team Vacancies Information Fleet Route Network Rules and Regulations Operations Flight Schedules Event Center Tours Partners IVAO Vatsim Acars dev FSCB

fb Users Online No pilots online!
0 Pilot(s) and 104 Guest(s) Online
CMS by phpVMS - Design by Crazycreatives.com - Copyright © 2018 - Brussels Airlines Virtual